Colorado Springs, CO (80941)

12:29 PM MDT on October 21, 2014 (GMT -0600)
Carefree Circle S & Windward Circle Village 7 | Change Station
CLOSE
Current Station
Personal Weather Station
Location: Colorado Springs, CO
Elevation: 6509 ft
Nearby Weather Stations

Elev 6509 ft 38.88 °N, 104.74 °W | Updated 39 seconds ago

Partly Cloudy
Partly Cloudy
69.6 °F
Feels Like 69.6 °F
N
0.0
Wind Variable Wind from ESE
Gusts 7.0 mph

Today
High -- | Low -- °F
--% Chance of Precip.
Yesterday
High -- | Low -- °F
Precip. -- in
7:14 AM 6:12 PM
Waning Crescent, 5% visible
Pressure 29.92 in
Visibility 10.0 miles
Clouds Few 10000 ft
Scattered Clouds 24000 ft
Dew Point 46 °F
Humidity 42%
Rainfall 0.00 in
Snow Depth 1 in
UV 5.3 out of 12
Pollen 2.80 out of 12
PM2.5 Good
Flu Activity Sporadic
METAR KCOS 211754Z 18007KT 150V210 10SM FEW100 SCT240 19/04 A3009 RMK AO2 SLP131 T01890044 10189 20044 58012

More Conditions Fewer Conditions

Pressure 29.92 in
Visibility 10.0 miles
Clouds Few 10000 ft
Scattered Clouds 24000 ft
Dew Point 46 °F
Humidity 42%
Rainfall 0.00 in
Snow Depth 1 in
UV 5.3 out of 12
Pollen 2.80 out of 12
PM2.5 Good
Flu Activity Sporadic
METAR KCOS 211754Z 18007KT 150V210 10SM FEW100 SCT240 19/04 A3009 RMK AO2 SLP131 T01890044 10189 20044 58012

More Conditions Fewer Conditions

10-Day Weather Forecast

Almanac

Astronomy

Oct. 21, 2014 Rise Set
Actual Time 7:14 AM MDT 6:12 PM MDT
Civil Twilight 6:47 AM MDT 6:39 PM MDT
Nautical Twilight 6:16 AM MDT 7:10 PM MDT
Astronomical Twilight 5:45 AM MDT 7:40 PM MDT
Moon 5:02 AM MDT 5:06 PM MDT
Length of Visible Light 11h 51m
Length of Day
10h 57m
Tomorrow will be 2m 22s shorter.
Waning Crescent, 5% of the Moon is Illuminated
Today
Waning Crescent
Oct 23
New
Oct 30
First Quarter
Nov 6
Full
Nov 14
Last Quarter

Today's Extremes

State Highs State Lows

Community

WunderPhotos

Upload Photos

1,763,738 photos uploaded!

Nearby

Air Quality

  Air Quality AQ Index Pollutant
Yesterday Good
OZONE
Yesterday Good
PM2.5
Current Good
PM2.5
Tuesday Good
PM2.5
Tuesday Good
OZONE

Snow Depth

Station Depth Elevation
Glen Cove 1 in 11460 ft
Echo Lake 0 in 10600 ft
Rough And Tumble 0 in 10360 ft
Michigan Creek 0 in 10600 ft
Jackwhacker Gulch 0 in 10960 ft

Earthquake Activity

City Distance Mag. Time & Date
Trinidad, Colorado 123 miles 2.7 10:33 PM MDT
2014-10-20
Trinidad, Colorado 114 miles 2.5 10:01 PM MDT
2014-10-19
Minimum magnitude displayed is 2.5.

Coastal Water Temperatures

Place Temperature
No Stations Reporting

Nearby Weather Stations